City Of Cassville — WDF9487 — position and weather

sailwx.info

Track history (hours):
 
Tides and Currents Weather Stations Pressure Air Temp Water Temp Dewpoint Dewpoint Depression Visibility Wind Speed Wind Dir Waves Ship Positions

City Of Cassville

Owner: Marquette Transportation Co. LLC, Paducah, KY. More information available from US FCC via Universal Licensing System and Coast Guard Vessel Documentation Center.

Last reported at 2018-Apr-18 13:01 UTC. Time now 2018-Apr-21 19:02 UTC.
Position N 39°09' W 090°43'.

Length 42 m; draft 3 m.

Type: . MMSI: 367505660.

Date/timePositionNaut miles runAvg speedWind from/ knotsBaromVisibWave heightAir tempDewpointWater temp
2018-Apr-18 13:01N 39°09' W 090°43'0 4.8
2018-Apr-18 12:58N 39°09' W 090°43'2 4.7
2018-Apr-18 12:30N 39°07' W 090°41'3 4.6
2018-Apr-18 11:49N 39°04' W 090°42'1 4.5
2018-Apr-18 11:30N 39°02' W 090°43'2 4.5
2018-Apr-18 11:00N 39°00' W 090°41'0 0.5
2018-Apr-18 10:30N 39°00' W 090°41'0 0.0
2018-Apr-18 10:00N 39°00' W 090°41'0 0.2
2018-Apr-18 09:30N 39°00' W 090°41'0 0.1
2018-Apr-18 09:00N 39°00' W 090°41'2 3.7
2018-Apr-18 08:24N 38°58' W 090°40'2 5.2
2018-Apr-18 08:00N 38°56' W 090°40'2 5.0
2018-Apr-18 07:30N 38°54' W 090°38'0 0.4
2018-Apr-18 07:00N 38°54' W 090°38'1 1.8
2018-Apr-18 06:30N 38°53' W 090°37'2 4.8
2018-Apr-18 06:00N 38°52' W 090°35'3 5.0
2018-Apr-18 05:30N 38°53' W 090°32'3 5.1
2018-Apr-18 05:00N 38°55' W 090°30'3 5.0
2018-Apr-18 04:30N 38°57' W 090°28'2 4.9
2018-Apr-18 04:00N 38°58' W 090°25'1 1.2
2018-Apr-18 03:30N 38°58' W 090°24'0 0.1
2018-Apr-18 03:00N 38°58' W 090°24'1 2.4
2018-Apr-18 02:30N 38°57' W 090°23'3 5.4
2018-Apr-18 02:00N 38°56' W 090°20'3 5.2
2018-Apr-18 01:30N 38°55' W 090°16'2 3.3
2018-Apr-18 01:00N 38°55' W 090°14'2 3.5
2018-Apr-18 00:30N 38°54' W 090°13'3 5.3
2018-Apr-18 00:00N 38°53' W 090°10'1 1.6
2018-Apr-17 23:30N 38°52' W 090°09'1 2.0
2018-Apr-17 22:59N 38°51' W 090°08'0 0.5
2018-Apr-17 22:30N 38°51' W 090°08'0 0.0
2018-Apr-17 22:00N 38°51' W 090°08'0 0.0
2018-Apr-17 21:30N 38°51' W 090°08'0 0.0
2018-Apr-17 21:00N 38°51' W 090°08'0 0.0
2018-Apr-17 20:30N 38°51' W 090°08'1 1.6
2018-Apr-17 20:00N 38°51' W 090°07'2 4.2
2018-Apr-17 19:30N 38°49' W 090°07'3 4.5
2018-Apr-17 18:54N 38°46' W 090°08'1 3.7
2018-Apr-17 18:30N 38°45' W 090°09'0 0.1
2018-Apr-17 17:59N 38°45' W 090°09'3 4.7
2018-Apr-17 17:26N 38°43' W 090°10'1 1.6
2018-Apr-17 16:53N 38°42' W 090°11'0 0.7
2018-Apr-17 16:30N 38°42' W 090°11'0 0.6
2018-Apr-17 16:00N 38°42' W 090°11'2 4.8
2018-Apr-17 15:30N 38°39' W 090°11'3 6.1
2018-Apr-17 15:00N 38°36' W 090°11'5 6.3
2018-Apr-17 14:17N 38°33' W 090°15'  
2018-Apr-11 03:19N 32°37' W 091°08'2 5.7
2018-Apr-11 03:00N 32°35' W 091°07'3 5.4
2018-Apr-11 02:30N 32°32' W 091°07'3 5.4
2018-Apr-11 01:59N 32°30' W 091°07'2 5.0
2018-Apr-11 01:30N 32°28' W 091°06'3 5.6
2018-Apr-11 01:00N 32°26' W 091°03'2 4.2
2018-Apr-11 00:30N 32°25' W 091°01'2 4.8
2018-Apr-11 00:00N 32°23' W 091°00'2 3.8
2018-Apr-10 23:30N 32°21' W 090°59'2 4.9
2018-Apr-10 23:00N 32°21' W 090°56'2 3.9
2018-Apr-10 22:30N 32°19' W 090°54'2 4.4
2018-Apr-10 22:00N 32°18' W 090°56'0 0.0
2018-Apr-10 21:30N 32°18' W 090°56'0 0.0
2018-Apr-10 21:00N 32°18' W 090°56'0 0.0
2018-Apr-10 20:30N 32°18' W 090°56'0 0.0
2018-Apr-10 20:00N 32°18' W 090°56'0 0.0
2018-Apr-10 19:30N 32°18' W 090°56'0 0.0
2018-Apr-10 19:00N 32°18' W 090°56'0 0.0
2018-Apr-10 18:29N 32°18' W 090°56'0 0.0
2018-Apr-10 18:00N 32°18' W 090°56'0 0.3
2018-Apr-10 17:30N 32°18' W 090°56'1 1.5
2018-Apr-10 17:00N 32°17' W 090°57'2 3.5
2018-Apr-10 16:30N 32°16' W 090°58'3 5.5
2018-Apr-10 16:00N 32°13' W 090°59'3 5.1
2018-Apr-10 15:30N 32°11' W 090°60'3 5.4
2018-Apr-10 15:00N 32°08' W 091°00'2 4.4
2018-Apr-10 14:30N 32°07' W 091°03'2 3.4
2018-Apr-10 14:00N 32°08' W 091°05'5 4.2
2018-Apr-10 12:52N 32°03' W 091°05'2 5.0
2018-Apr-10 12:29N 32°01' W 091°04'3 5.8
2018-Apr-10 12:00N 31°59' W 091°07'12 4.8
2018-Apr-10 09:36N 31°52' W 091°17'  
Track history (hours):
 
Tides and Currents Weather Stations Pressure Air Temp Water Temp Dewpoint Dewpoint Depression Visibility Wind Speed Wind Dir Waves Ship Positions

City Of Cassville

Owner: Marquette Transportation Co. LLC, Paducah, KY. More information available from US FCC via Universal Licensing System and Coast Guard Vessel Documentation Center.

Last reported at 2018-Apr-18 13:01 UTC. Time now 2018-Apr-21 19:02 UTC.
Position N 39°09' W 090°43'.

Length 42 m; draft 3 m.

Type: . MMSI: 367505660.

Date/timePositionNaut miles runAvg speedWind from/ knotsBaromVisibWave heightAir tempDewpointWater temp
2018-Apr-18 13:01N 39°09' W 090°43'0 4.8
2018-Apr-18 12:58N 39°09' W 090°43'2 4.7
2018-Apr-18 12:30N 39°07' W 090°41'3 4.6
2018-Apr-18 11:49N 39°04' W 090°42'1 4.5
2018-Apr-18 11:30N 39°02' W 090°43'2 4.5
2018-Apr-18 11:00N 39°00' W 090°41'0 0.5
2018-Apr-18 10:30N 39°00' W 090°41'0 0.0
2018-Apr-18 10:00N 39°00' W 090°41'0 0.2
2018-Apr-18 09:30N 39°00' W 090°41'0 0.1
2018-Apr-18 09:00N 39°00' W 090°41'2 3.7
2018-Apr-18 08:24N 38°58' W 090°40'2 5.2
2018-Apr-18 08:00N 38°56' W 090°40'2 5.0
2018-Apr-18 07:30N 38°54' W 090°38'0 0.4
2018-Apr-18 07:00N 38°54' W 090°38'1 1.8
2018-Apr-18 06:30N 38°53' W 090°37'2 4.8
2018-Apr-18 06:00N 38°52' W 090°35'3 5.0
2018-Apr-18 05:30N 38°53' W 090°32'3 5.1
2018-Apr-18 05:00N 38°55' W 090°30'3 5.0
2018-Apr-18 04:30N 38°57' W 090°28'2 4.9
2018-Apr-18 04:00N 38°58' W 090°25'1 1.2
2018-Apr-18 03:30N 38°58' W 090°24'0 0.1
2018-Apr-18 03:00N 38°58' W 090°24'1 2.4
2018-Apr-18 02:30N 38°57' W 090°23'3 5.4
2018-Apr-18 02:00N 38°56' W 090°20'3 5.2
2018-Apr-18 01:30N 38°55' W 090°16'2 3.3
2018-Apr-18 01:00N 38°55' W 090°14'2 3.5
2018-Apr-18 00:30N 38°54' W 090°13'3 5.3
2018-Apr-18 00:00N 38°53' W 090°10'1 1.6
2018-Apr-17 23:30N 38°52' W 090°09'1 2.0
2018-Apr-17 22:59N 38°51' W 090°08'0 0.5
2018-Apr-17 22:30N 38°51' W 090°08'0 0.0
2018-Apr-17 22:00N 38°51' W 090°08'0 0.0
2018-Apr-17 21:30N 38°51' W 090°08'0 0.0
2018-Apr-17 21:00N 38°51' W 090°08'0 0.0
2018-Apr-17 20:30N 38°51' W 090°08'1 1.6
2018-Apr-17 20:00N 38°51' W 090°07'2 4.2
2018-Apr-17 19:30N 38°49' W 090°07'3 4.5
2018-Apr-17 18:54N 38°46' W 090°08'1 3.7
2018-Apr-17 18:30N 38°45' W 090°09'0 0.1
2018-Apr-17 17:59N 38°45' W 090°09'3 4.7
2018-Apr-17 17:26N 38°43' W 090°10'1 1.6
2018-Apr-17 16:53N 38°42' W 090°11'0 0.7
2018-Apr-17 16:30N 38°42' W 090°11'0 0.6
2018-Apr-17 16:00N 38°42' W 090°11'2 4.8
2018-Apr-17 15:30N 38°39' W 090°11'3 6.1
2018-Apr-17 15:00N 38°36' W 090°11'5 6.3
2018-Apr-17 14:17N 38°33' W 090°15'  
2018-Apr-11 03:19N 32°37' W 091°08'2 5.7
2018-Apr-11 03:00N 32°35' W 091°07'3 5.4
2018-Apr-11 02:30N 32°32' W 091°07'3 5.4
2018-Apr-11 01:59N 32°30' W 091°07'2 5.0
2018-Apr-11 01:30N 32°28' W 091°06'3 5.6
2018-Apr-11 01:00N 32°26' W 091°03'2 4.2
2018-Apr-11 00:30N 32°25' W 091°01'2 4.8
2018-Apr-11 00:00N 32°23' W 091°00'2 3.8
2018-Apr-10 23:30N 32°21' W 090°59'2 4.9
2018-Apr-10 23:00N 32°21' W 090°56'2 3.9
2018-Apr-10 22:30N 32°19' W 090°54'2 4.4
2018-Apr-10 22:00N 32°18' W 090°56'0 0.0
2018-Apr-10 21:30N 32°18' W 090°56'0 0.0
2018-Apr-10 21:00N 32°18' W 090°56'0 0.0
2018-Apr-10 20:30N 32°18' W 090°56'0 0.0
2018-Apr-10 20:00N 32°18' W 090°56'0 0.0
2018-Apr-10 19:30N 32°18' W 090°56'0 0.0
2018-Apr-10 19:00N 32°18' W 090°56'0 0.0
2018-Apr-10 18:29N 32°18' W 090°56'0 0.0
2018-Apr-10 18:00N 32°18' W 090°56'0 0.3
2018-Apr-10 17:30N 32°18' W 090°56'1 1.5
2018-Apr-10 17:00N 32°17' W 090°57'2 3.5
2018-Apr-10 16:30N 32°16' W 090°58'3 5.5
2018-Apr-10 16:00N 32°13' W 090°59'3 5.1
2018-Apr-10 15:30N 32°11' W 090°60'3 5.4
2018-Apr-10 15:00N 32°08' W 091°00'2 4.4
2018-Apr-10 14:30N 32°07' W 091°03'2 3.4
2018-Apr-10 14:00N 32°08' W 091°05'5 4.2
2018-Apr-10 12:52N 32°03' W 091°05'2 5.0
2018-Apr-10 12:29N 32°01' W 091°04'3 5.8
2018-Apr-10 12:00N 31°59' W 091°07'12 4.8
2018-Apr-10 09:36N 31°52' W 091°17'  

Dump ship's entire track history